»·PEaware :: N206GH KSBP-KBUR

N206GH :: KSBP-KBUR

FLIGHT INFORMATION

Flight Status: Arrived
Operator: Privately registered:
United States
More flights under this callsign
Pilot: Gabor H. (24209)
Aircraft: CESSNA 206 STATIONAIR
(C206)
More flights by this aircraft type
Origin: KSBP San Luis Co Regl
United States
Destination: KBUR Bob Hope-Burbank
United States
More flights between these airports :: More routes between these airports
Route: +
File this flight plan on PilotEdge
Remarks:
Altitude:
(Current/Filed)
7,500ft
Speed:
(Current/Filed)
0kts
Departed: 18-Nov-20 04:09 PM
Arrived: 18-Nov-20 05:00 PM
Distance/Time
Traveled:
1649nm/0:51
Distance/Time
To Go:
Arrived

Flight Plot

Page will automatically refresh every two minutes.


Map Options




Map Legend


Flown Route
Filed Route
Departure Airport
Arrival Airport
Navaid (VOR, NDB)
Fix

Horizontal Profiles

Position Reports

Time Latitude Longitude Heading Altitude Ground
Speed
18-Nov-20 16:02 35.238867 -120.638661 270 199ft 0kts
18-Nov-20 16:03 35.238867 -120.638661 270 199ft 0kts
18-Nov-20 16:04 35.238210 -120.638541 183 205ft 10kts
18-Nov-20 16:05 35.235375 -120.635687 123 212ft 12kts
18-Nov-20 16:06 35.233264 -120.632432 195 218ft 2kts
18-Nov-20 16:07 35.232891 -120.633160 296 214ft 13kts
18-Nov-20 16:08 35.242040 -120.649068 307 777ft 88kts
18-Nov-20 16:09 35.232069 -120.656262 125 1882ft 127kts
18-Nov-20 16:10 35.212956 -120.620021 123 3154ft 125kts
18-Nov-20 16:11 35.194556 -120.583596 123 4428ft 129kts
18-Nov-20 16:12 35.175145 -120.546050 126 5651ft 132kts
18-Nov-20 16:13 35.155841 -120.507289 102 6849ft 137kts
18-Nov-20 16:14 35.143624 -120.461548 120 7505ft 164kts
18-Nov-20 16:15 35.117600 -120.411077 124 7504ft 182kts
18-Nov-20 16:16 35.089194 -120.359921 124 7510ft 180kts
18-Nov-20 16:17 35.061320 -120.309373 120 7507ft 178kts
18-Nov-20 16:18 35.044946 -120.252455 102 7509ft 178kts
18-Nov-20 16:19 35.034142 -120.193519 101 7506ft 178kts
18-Nov-20 16:20 35.023281 -120.134337 101 7503ft 179kts
18-Nov-20 16:21 35.012352 -120.074925 101 7497ft 179kts
18-Nov-20 16:22 35.001363 -120.015369 101 7493ft 179kts
18-Nov-20 16:23 34.990606 -119.956064 101 7509ft 178kts
18-Nov-20 16:24 34.979997 -119.897036 101 7512ft 178kts
18-Nov-20 16:25 34.970897 -119.837085 97 7519ft 179kts
18-Nov-20 16:27 34.963383 -119.776765 97 7519ft 180kts
18-Nov-20 16:28 34.955913 -119.716414 97 7519ft 180kts
18-Nov-20 16:29 34.948465 -119.655947 97 7519ft 180kts
18-Nov-20 16:30 34.941050 -119.595544 97 7520ft 181kts
18-Nov-20 16:31 34.930638 -119.534897 101 7518ft 183kts
18-Nov-20 16:32 34.919709 -119.474263 101 7504ft 182kts
18-Nov-20 16:33 34.908897 -119.414157 101 7508ft 181kts
18-Nov-20 16:34 34.898010 -119.354042 101 7623ft 175kts
18-Nov-20 16:35 34.888534 -119.301436 102 8523ft 151kts
18-Nov-20 16:36 34.871804 -119.245658 120 8273ft 191kts
18-Nov-20 16:37 34.857393 -119.182771 97 7871ft 196kts
18-Nov-20 16:38 34.850450 -119.118157 97 7518ft 181kts
18-Nov-20 16:39 34.838044 -119.060696 111 7515ft 175kts
18-Nov-20 16:40 34.821368 -119.005240 95 7516ft 174kts
18-Nov-20 16:41 34.818537 -118.945672 113 7515ft 177kts
18-Nov-20 16:42 34.782795 -118.907885 142 7519ft 175kts
18-Nov-20 16:43 34.745550 -118.868648 139 7507ft 178kts
18-Nov-20 16:44 34.709489 -118.827571 139 7493ft 177kts
18-Nov-20 16:45 34.673717 -118.786530 139 7491ft 175kts
18-Nov-20 16:46 34.638267 -118.745695 139 7491ft 175kts
18-Nov-20 16:46 34.609011 -118.711999 143 7521ft 173kts
18-Nov-20 16:48 34.562752 -118.673704 152 7519ft 172kts
18-Nov-20 16:48 34.528447 -118.649034 153 7530ft 172kts
18-Nov-20 16:50 34.479863 -118.614347 153 6674ft 173kts
18-Nov-20 16:50 34.445720 -118.589908 152 5916ft 169kts
18-Nov-20 16:51 34.405483 -118.561239 152 5022ft 166kts
18-Nov-20 16:52 34.366888 -118.533674 152 4192ft 159kts
18-Nov-20 16:53 34.331368 -118.503873 131 3423ft 151kts
18-Nov-20 16:54 34.305346 -118.463634 126 2624ft 150kts
18-Nov-20 16:55 34.282910 -118.423686 125 2207ft 137kts
18-Nov-20 16:56 34.259457 -118.388607 133 2106ft 138kts
18-Nov-20 16:57 34.231584 -118.366185 160 1484ft 106kts
18-Nov-20 16:58 34.206574 -118.358898 170 780ft 58kts
18-Nov-20 16:59 34.202798 -118.358772 258 780ft 0kts
18-Nov-20 17:00 34.202392 -118.359712 231 780ft 13kts
18-Nov-20 17:01 34.200917 -118.360989 9 780ft 0kts
18-Nov-20 17:02 34.200917 -118.360989 9 780ft 0kts
18-Nov-20 17:03 40.036869 -86.254770 0 925ft 0kts
18-Nov-20 17:04 40.036869 -86.254770 0 925ft 0kts
18-Nov-20 17:05 40.036869 -86.254770 0 925ft 0kts
18-Nov-20 17:06 40.036869 -86.254770 0 925ft 0kts
18-Nov-20 17:07 40.036869 -86.254770 0 925ft 0kts
18-Nov-20 17:08 40.036869 -86.254770 0 925ft 0kts
18-Nov-20 17:09 40.037865 -86.253511 23 925ft 14kts
18-Nov-20 17:10 40.038053 -86.251661 130 925ft 9kts
18-Nov-20 17:11 40.019992 -86.252916 183 1937ft 124kts
18-Nov-20 17:12 39.975050 -86.255701 184 4534ft 184kts
18-Nov-20 17:13 39.920781 -86.251703 183 7382ft 207kts

Navigation Log

Ident Type
Flight plan parsing failed, navigation log unavailable